createdAt,value
2022-10-29T00:00:57.265Z,100.00
2022-10-29T00:01:54.089Z,100.00
2022-10-29T00:02:50.898Z,100.00
2022-10-29T00:03:48.479Z,100.00
2022-10-29T00:04:45.214Z,100.00
2022-10-29T00:05:42.003Z,100.00
2022-10-29T00:06:38.896Z,100.00
2022-10-29T00:07:35.610Z,100.00
2022-10-29T00:08:34.718Z,100.00
2022-10-29T00:09:31.458Z,100.00
2022-10-29T00:10:29.324Z,100.00
2022-10-29T00:11:26.015Z,100.00
2022-10-29T00:12:22.728Z,100.00
2022-10-29T00:13:19.426Z,100.00
2022-10-29T00:14:17.365Z,100.00
2022-10-29T00:15:14.392Z,100.00
2022-10-29T00:16:17.398Z,100.00
2022-10-29T00:17:15.903Z,100.00
2022-10-29T00:18:12.653Z,100.00
2022-10-29T00:19:09.595Z,100.00
2022-10-29T00:21:07.965Z,100.00
2022-10-29T00:22:04.685Z,100.00
2022-10-29T00:23:01.370Z,100.00
2022-10-29T00:23:58.493Z,100.00
2022-10-29T00:24:55.192Z,100.00
2022-10-29T00:25:56.488Z,100.00
2022-10-29T00:26:53.159Z,100.00
2022-10-29T00:27:49.860Z,100.00
2022-10-29T00:28:47.386Z,100.00
2022-10-29T00:29:44.100Z,100.00
2022-10-29T00:30:40.788Z,100.00
2022-10-29T00:31:37.512Z,100.00
2022-10-29T00:32:34.228Z,100.00
2022-10-29T00:33:31.824Z,100.00
2022-10-29T00:34:29.357Z,100.00
2022-10-29T00:35:26.330Z,100.00
2022-10-29T00:36:26.834Z,100.00
2022-10-29T00:37:23.642Z,100.00
2022-10-29T00:38:20.315Z,100.00
2022-10-29T00:39:17.660Z,100.00
2022-10-29T00:40:14.420Z,100.00
2022-10-29T00:41:14.491Z,100.00
2022-10-29T00:42:16.510Z,100.00
2022-10-29T00:43:18.765Z,100.00
2022-10-29T00:44:15.417Z,100.00
2022-10-29T00:45:20.853Z,100.00
2022-10-29T00:47:40.140Z,100.00
2022-10-29T00:48:46.428Z,100.00
2022-10-29T00:49:47.444Z,100.00
2022-10-29T00:50:48.126Z,100.00
2022-10-29T00:51:47.514Z,100.00
2022-10-29T00:52:50.183Z,100.00
2022-10-29T00:53:54.566Z,100.00
2022-10-29T00:54:53.860Z,100.00
2022-10-29T00:55:51.157Z,100.00
2022-10-29T00:56:59.534Z,100.00
2022-10-29T00:57:58.229Z,100.00
2022-10-29T00:58:56.081Z,100.00
2022-10-29T00:59:53.203Z,100.00
2022-10-29T01:00:49.970Z,100.00
2022-10-29T01:01:49.437Z,100.00
2022-10-29T01:02:46.347Z,100.00
2022-10-29T01:03:43.395Z,100.00
2022-10-29T01:04:41.860Z,100.00
2022-10-29T01:05:40.048Z,100.00
2022-10-29T01:06:38.657Z,100.00
2022-10-29T01:07:35.608Z,100.00
2022-10-29T01:08:32.388Z,100.00
2022-10-29T01:09:29.185Z,100.00
2022-10-29T01:10:46.054Z,100.00
2022-10-29T01:12:09.789Z,100.00
2022-10-29T01:14:42.799Z,100.00
2022-10-29T01:15:58.016Z,100.00
2022-10-29T01:17:00.898Z,100.00
2022-10-29T01:18:42.241Z,100.00
2022-10-29T01:20:12.964Z,100.00
2022-10-29T01:21:31.357Z,100.00
2022-10-29T01:22:36.458Z,100.00
2022-10-29T01:23:54.912Z,100.00
2022-10-29T01:25:23.876Z,100.00
2022-10-29T01:26:45.755Z,100.00
2022-10-29T01:28:06.939Z,100.00
2022-10-29T01:29:40.401Z,100.00
2022-10-29T01:31:05.055Z,100.00
2022-10-29T01:32:16.000Z,100.00
2022-10-29T01:33:47.649Z,100.00
2022-10-29T01:34:56.336Z,100.00
2022-10-29T01:36:26.500Z,100.00
2022-10-29T01:37:48.798Z,100.00
2022-10-29T01:39:03.025Z,100.00
2022-10-29T01:40:17.128Z,100.00
2022-10-29T01:41:47.493Z,100.00
2022-10-29T01:42:53.553Z,100.00
2022-10-29T01:44:14.550Z,100.00
2022-10-29T01:45:36.798Z,100.00
2022-10-29T01:46:57.728Z,100.00
2022-10-29T01:48:18.922Z,100.00
2022-10-29T01:49:34.268Z,100.00
2022-10-29T01:50:33.973Z,100.00
2022-10-29T01:51:36.413Z,100.00
2022-10-29T01:52:37.314Z,100.00
2022-10-29T01:53:37.592Z,100.00
2022-10-29T01:54:34.321Z,100.00
2022-10-29T01:55:35.355Z,100.00
2022-10-29T01:56:32.069Z,100.00
2022-10-29T01:57:33.210Z,100.00
2022-10-29T01:58:31.757Z,100.00
2022-10-29T01:59:43.544Z,100.00
2022-10-29T02:01:00.316Z,100.00
2022-10-29T02:02:18.501Z,100.00
2022-10-29T02:03:33.973Z,100.00
2022-10-29T02:05:14.813Z,100.00
2022-10-29T02:06:31.211Z,100.00
2022-10-29T02:07:54.480Z,100.00
2022-10-29T02:09:02.687Z,100.00
2022-10-29T02:10:15.897Z,100.00
2022-10-29T02:11:23.848Z,100.00
2022-10-29T02:12:38.808Z,100.00
2022-10-29T02:13:44.563Z,100.00
2022-10-29T02:14:59.282Z,100.00
2022-10-29T02:15:58.908Z,100.00
2022-10-29T02:16:57.946Z,100.00
2022-10-29T02:18:00.243Z,100.00
2022-10-29T02:18:58.153Z,100.00
2022-10-29T02:19:54.880Z,100.00
2022-10-29T02:20:51.623Z,100.00
2022-10-29T02:21:50.826Z,100.00
2022-10-29T02:22:47.514Z,100.00
2022-10-29T02:23:44.360Z,100.00
2022-10-29T02:24:41.125Z,100.00
2022-10-29T02:25:37.918Z,100.00
2022-10-29T02:26:34.606Z,100.00
2022-10-29T02:27:31.321Z,100.00
2022-10-29T02:28:28.022Z,100.00
2022-10-29T02:29:24.762Z,100.00
2022-10-29T02:30:21.432Z,100.00
2022-10-29T02:31:18.110Z,100.00
2022-10-29T02:32:14.813Z,100.00
2022-10-29T02:33:11.499Z,100.00
2022-10-29T02:34:08.193Z,100.00
2022-10-29T02:35:05.289Z,100.00
2022-10-29T02:36:02.222Z,100.00
2022-10-29T02:36:58.934Z,100.00
2022-10-29T02:37:55.649Z,100.00
2022-10-29T02:38:52.350Z,100.00
2022-10-29T02:39:49.024Z,100.00
2022-10-29T02:40:45.709Z,100.00
2022-10-29T02:41:42.436Z,100.00
2022-10-29T02:42:39.128Z,100.00
2022-10-29T02:43:35.832Z,100.00
2022-10-29T02:44:32.540Z,100.00
2022-10-29T02:45:29.214Z,100.00
2022-10-29T02:46:26.460Z,100.00
2022-10-29T02:47:23.112Z,100.00
2022-10-29T02:48:19.794Z,100.00
2022-10-29T02:49:16.495Z,100.00
2022-10-29T02:50:13.307Z,100.00
2022-10-29T02:51:10.986Z,100.00
2022-10-29T02:52:07.784Z,100.00
2022-10-29T02:53:04.451Z,100.00
2022-10-29T02:54:01.163Z,100.00
2022-10-29T02:54:57.849Z,100.00
2022-10-29T02:55:54.533Z,100.00
2022-10-29T02:56:51.207Z,100.00
2022-10-29T02:57:47.904Z,100.00
2022-10-29T02:58:44.850Z,100.00
2022-10-29T02:59:41.550Z,100.00
2022-10-29T03:00:38.238Z,100.00
2022-10-29T03:01:35.048Z,100.00
2022-10-29T03:02:31.960Z,100.00
2022-10-29T03:03:29.094Z,100.00
2022-10-29T03:04:25.797Z,100.00
2022-10-29T03:05:22.473Z,100.00
2022-10-29T03:06:20.319Z,100.00
2022-10-29T03:07:17.097Z,100.00
2022-10-29T03:08:13.845Z,100.00
2022-10-29T03:09:10.591Z,100.00
2022-10-29T03:10:08.127Z,100.00
2022-10-29T03:11:04.799Z,100.00
2022-10-29T03:12:01.896Z,100.00
2022-10-29T03:13:00.100Z,100.00
2022-10-29T03:13:56.941Z,100.00
2022-10-29T03:14:53.635Z,100.00
2022-10-29T03:15:50.312Z,100.00
2022-10-29T03:16:46.984Z,100.00
2022-10-29T03:17:43.725Z,100.00
2022-10-29T03:18:40.470Z,100.00
2022-10-29T03:19:37.160Z,100.00
2022-10-29T03:20:33.924Z,100.00
2022-10-29T03:21:30.613Z,100.00
2022-10-29T03:22:27.296Z,100.00
2022-10-29T03:23:24.016Z,100.00
2022-10-29T03:24:20.759Z,100.00
2022-10-29T03:25:17.422Z,100.00
2022-10-29T03:26:14.089Z,100.00
2022-10-29T03:27:10.760Z,100.00
2022-10-29T03:28:07.494Z,100.00
2022-10-29T03:29:04.222Z,100.00
2022-10-29T03:30:00.932Z,100.00
2022-10-29T03:30:58.597Z,100.00
2022-10-29T03:31:55.272Z,100.00
2022-10-29T03:32:53.008Z,100.00
2022-10-29T03:33:49.904Z,100.00
2022-10-29T03:34:46.594Z,100.00
2022-10-29T03:35:43.331Z,100.00
2022-10-29T03:36:40.011Z,100.00
2022-10-29T03:37:36.884Z,100.00
2022-10-29T03:38:34.784Z,100.00
2022-10-29T03:39:31.521Z,100.00
2022-10-29T03:40:28.201Z,100.00
2022-10-29T03:41:24.953Z,100.00
2022-10-29T03:42:21.654Z,100.00
2022-10-29T03:43:19.046Z,100.00
2022-10-29T03:44:15.751Z,100.00
2022-10-29T03:45:12.668Z,100.00
2022-10-29T03:46:09.470Z,100.00
2022-10-29T03:47:09.206Z,100.00
2022-10-29T03:48:06.190Z,100.00
2022-10-29T03:49:02.942Z,100.00
2022-10-29T03:49:59.657Z,100.00
2022-10-29T03:51:05.855Z,100.00
2022-10-29T03:52:02.566Z,100.00
2022-10-29T03:52:59.264Z,100.00
2022-10-29T03:53:56.016Z,100.00
2022-10-29T03:54:52.668Z,100.00
2022-10-29T03:55:51.718Z,100.00
2022-10-29T03:56:48.406Z,100.00
2022-10-29T03:57:45.080Z,100.00
2022-10-29T03:58:41.752Z,100.00
2022-10-29T03:59:38.539Z,100.00
2022-10-29T04:00:35.259Z,100.00
2022-10-29T04:01:32.037Z,100.00
2022-10-29T04:02:29.034Z,100.00
2022-10-29T04:03:27.781Z,100.00
2022-10-29T04:04:24.512Z,100.00
2022-10-29T04:05:21.217Z,100.00
2022-10-29T04:06:18.322Z,100.00
2022-10-29T04:07:15.169Z,100.00
2022-10-29T04:08:11.858Z,100.00
2022-10-29T04:09:08.680Z,100.00
2022-10-29T04:10:05.794Z,100.00
2022-10-29T04:11:02.626Z,100.00
2022-10-29T04:11:59.323Z,100.00
2022-10-29T04:12:56.312Z,100.00
2022-10-29T04:13:53.675Z,100.00
2022-10-29T04:15:47.992Z,100.00
2022-10-29T04:16:44.739Z,100.00
2022-10-29T04:17:41.427Z,100.00
2022-10-29T04:18:38.123Z,100.00
2022-10-29T04:19:34.800Z,100.00
2022-10-29T04:20:45.634Z,100.00
2022-10-29T04:24:12.311Z,100.00
2022-10-29T04:29:29.147Z,100.00
2022-10-29T04:30:25.983Z,100.00
2022-10-29T04:31:22.703Z,100.00
2022-10-29T04:32:19.389Z,100.00
2022-10-29T04:33:16.223Z,100.00
2022-10-29T04:34:12.987Z,100.00
2022-10-29T04:35:09.688Z,100.00
2022-10-29T04:36:06.894Z,100.00
2022-10-29T04:37:03.663Z,100.00
2022-10-29T04:38:00.333Z,100.00
2022-10-29T04:38:57.068Z,100.00
2022-10-29T04:39:53.777Z,100.00
2022-10-29T04:40:50.778Z,100.00
2022-10-29T04:41:49.521Z,100.00
2022-10-29T04:42:46.185Z,100.00
2022-10-29T04:43:42.889Z,100.00
2022-10-29T04:44:39.577Z,100.00
2022-10-29T04:45:36.301Z,100.00
2022-10-29T04:46:33.104Z,100.00
2022-10-29T04:47:29.907Z,100.00
2022-10-29T04:48:28.392Z,100.00
2022-10-29T04:49:25.282Z,100.00
2022-10-29T04:50:21.978Z,100.00
2022-10-29T04:51:24.773Z,100.00
2022-10-29T04:52:21.485Z,100.00
2022-10-29T04:53:18.904Z,100.00
2022-10-29T04:54:15.781Z,100.00
2022-10-29T04:55:12.464Z,100.00
2022-10-29T04:56:09.186Z,100.00
2022-10-29T04:57:05.846Z,100.00
2022-10-29T04:58:02.550Z,100.00
2022-10-29T04:58:59.222Z,100.00
2022-10-29T04:59:55.923Z,100.00
2022-10-29T05:00:52.752Z,100.00
2022-10-29T05:01:49.522Z,100.00
2022-10-29T05:02:53.759Z,100.00
2022-10-29T05:03:53.088Z,100.00
2022-10-29T05:04:50.898Z,100.00
2022-10-29T05:05:47.573Z,100.00
2022-10-29T05:06:44.270Z,100.00
2022-10-29T05:07:40.937Z,100.00
2022-10-29T05:08:37.619Z,100.00
2022-10-29T05:09:34.311Z,100.00
2022-10-29T05:10:33.849Z,100.00
2022-10-29T05:11:30.629Z,100.00
2022-10-29T05:12:27.312Z,100.00
2022-10-29T05:13:24.009Z,100.00
2022-10-29T05:14:20.691Z,100.00
2022-10-29T05:15:17.372Z,100.00
2022-10-29T05:16:14.045Z,100.00
2022-10-29T05:17:10.734Z,100.00
2022-10-29T05:18:09.035Z,100.00
2022-10-29T05:19:06.611Z,100.00
2022-10-29T05:20:03.660Z,100.00
2022-10-29T05:21:00.392Z,100.00
2022-10-29T05:21:57.142Z,100.00
2022-10-29T05:23:01.730Z,100.00
2022-10-29T05:23:58.726Z,100.00
2022-10-29T05:24:55.432Z,100.00
2022-10-29T05:25:52.559Z,100.00
2022-10-29T05:26:49.582Z,100.00
2022-10-29T05:27:46.272Z,100.00
2022-10-29T05:28:42.958Z,100.00
2022-10-29T05:29:39.666Z,100.00
2022-10-29T05:30:36.482Z,100.00
2022-10-29T05:31:33.318Z,100.00
2022-10-29T05:32:30.327Z,100.00
2022-10-29T05:33:27.207Z,100.00
2022-10-29T05:34:24.015Z,100.00
2022-10-29T05:35:20.774Z,100.00
2022-10-29T05:36:17.459Z,100.00
2022-10-29T05:37:14.317Z,100.00
2022-10-29T05:38:12.433Z,100.00
2022-10-29T05:39:09.212Z,100.00
2022-10-29T05:40:06.470Z,100.00
2022-10-29T05:41:03.236Z,100.00
2022-10-29T05:41:59.941Z,100.00
2022-10-29T05:42:56.957Z,100.00
2022-10-29T05:43:53.964Z,100.00
2022-10-29T05:44:50.660Z,100.00
2022-10-29T05:45:47.433Z,100.00
2022-10-29T05:46:44.152Z,100.00
2022-10-29T05:47:41.077Z,100.00
2022-10-29T05:48:37.768Z,100.00
2022-10-29T05:49:34.792Z,100.00
2022-10-29T05:50:32.788Z,100.00
2022-10-29T05:51:30.059Z,100.00
2022-10-29T05:52:26.768Z,100.00
2022-10-29T05:53:23.607Z,100.00
2022-10-29T05:54:20.285Z,100.00
2022-10-29T05:55:17.026Z,100.00
2022-10-29T05:56:13.927Z,100.00
2022-10-29T05:57:10.676Z,100.00
2022-10-29T05:58:11.280Z,100.00
2022-10-29T05:59:07.983Z,100.00
2022-10-29T06:00:05.169Z,100.00
2022-10-29T06:01:07.394Z,100.00
2022-10-29T06:02:04.306Z,100.00
2022-10-29T06:03:01.410Z,100.00
2022-10-29T06:04:01.259Z,100.00
2022-10-29T06:04:57.969Z,100.00
2022-10-29T06:05:54.722Z,100.00
2022-10-29T06:06:51.447Z,100.00
2022-10-29T06:07:57.576Z,100.00
2022-10-29T06:08:54.621Z,100.00
2022-10-29T06:09:51.369Z,100.00
2022-10-29T06:10:48.099Z,100.00
2022-10-29T06:11:44.825Z,100.00
2022-10-29T06:12:41.499Z,100.00
2022-10-29T06:13:38.248Z,100.00
2022-10-29T06:14:34.968Z,100.00
2022-10-29T06:15:31.646Z,100.00
2022-10-29T06:16:28.342Z,100.00
2022-10-29T06:17:25.156Z,100.00
2022-10-29T06:18:21.847Z,100.00
2022-10-29T06:19:18.613Z,100.00
2022-10-29T06:20:17.397Z,100.00
2022-10-29T06:21:14.212Z,100.00
2022-10-29T06:22:10.893Z,100.00
2022-10-29T06:23:07.601Z,100.00
2022-10-29T06:24:04.584Z,100.00
2022-10-29T06:25:01.274Z,100.00
2022-10-29T06:26:01.838Z,100.00
2022-10-29T06:27:01.238Z,100.00
2022-10-29T06:28:06.336Z,100.00
2022-10-29T06:29:04.032Z,100.00
2022-10-29T06:30:00.842Z,100.00
2022-10-29T06:30:57.633Z,100.00
2022-10-29T06:31:54.348Z,100.00
2022-10-29T06:32:51.036Z,100.00
2022-10-29T06:33:47.743Z,100.00
2022-10-29T06:34:44.480Z,100.00
2022-10-29T06:35:41.262Z,100.00
2022-10-29T06:36:37.986Z,100.00
2022-10-29T06:37:38.110Z,100.00
2022-10-29T06:38:34.814Z,100.00
2022-10-29T06:39:31.505Z,100.00
2022-10-29T06:40:28.206Z,100.00
2022-10-29T06:41:27.193Z,100.00
2022-10-29T06:42:24.507Z,100.00
2022-10-29T06:43:22.178Z,100.00
2022-10-29T06:44:19.216Z,100.00
2022-10-29T06:45:15.972Z,100.00
2022-10-29T06:46:12.600Z,100.00
2022-10-29T06:47:09.328Z,100.00
2022-10-29T06:48:06.425Z,100.00
2022-10-29T06:49:03.205Z,100.00
2022-10-29T06:49:59.973Z,100.00
2022-10-29T06:50:59.850Z,100.00
2022-10-29T06:51:56.661Z,100.00
2022-10-29T06:53:05.249Z,100.00
2022-10-29T06:54:02.600Z,100.00
2022-10-29T06:55:02.248Z,100.00
2022-10-29T06:55:59.859Z,100.00
2022-10-29T06:56:56.620Z,100.00
2022-10-29T06:57:58.438Z,100.00
2022-10-29T06:58:55.133Z,100.00
2022-10-29T06:59:51.897Z,100.00
2022-10-29T07:00:49.215Z,100.00
2022-10-29T07:01:46.708Z,100.00
2022-10-29T07:02:43.497Z,100.00
2022-10-29T07:03:40.124Z,100.00
2022-10-29T07:04:36.807Z,100.00
2022-10-29T07:05:33.940Z,100.00
2022-10-29T07:06:34.463Z,100.00
2022-10-29T07:07:31.272Z,100.00
2022-10-29T07:08:29.049Z,100.00
2022-10-29T07:09:25.770Z,100.00
2022-10-29T07:10:22.475Z,100.00
2022-10-29T07:11:19.225Z,100.00
2022-10-29T07:12:15.965Z,100.00
2022-10-29T07:13:12.686Z,100.00
2022-10-29T07:14:10.006Z,100.00
2022-10-29T07:15:06.893Z,100.00
2022-10-29T07:16:03.739Z,100.00
2022-10-29T07:17:00.514Z,100.00
2022-10-29T07:18:02.954Z,100.00
2022-10-29T07:18:59.845Z,100.00
2022-10-29T07:19:56.663Z,100.00
2022-10-29T07:20:53.397Z,100.00
2022-10-29T07:21:50.088Z,100.00
2022-10-29T07:22:47.844Z,100.00
2022-10-29T07:23:44.523Z,100.00
2022-10-29T07:24:41.218Z,100.00
2022-10-29T07:25:40.038Z,100.00
2022-10-29T07:26:37.362Z,100.00
2022-10-29T07:27:34.222Z,100.00
2022-10-29T07:28:31.005Z,100.00
2022-10-29T07:29:27.745Z,100.00
2022-10-29T07:30:24.489Z,100.00
2022-10-29T07:31:21.238Z,100.00
2022-10-29T07:32:17.955Z,100.00
2022-10-29T07:33:14.816Z,100.00
2022-10-29T07:34:11.941Z,100.00
2022-10-29T07:35:08.841Z,100.00
2022-10-29T07:36:06.010Z,100.00
2022-10-29T07:37:02.740Z,100.00
2022-10-29T07:38:05.290Z,100.00
2022-10-29T07:39:07.428Z,100.00
2022-10-29T07:40:06.075Z,100.00
2022-10-29T07:41:02.809Z,100.00
2022-10-29T07:41:59.615Z,100.00
2022-10-29T07:42:56.620Z,100.00
2022-10-29T07:43:53.635Z,100.00
2022-10-29T07:44:50.366Z,100.00
2022-10-29T07:45:50.039Z,100.00
2022-10-29T07:46:46.752Z,100.00
2022-10-29T07:47:43.437Z,100.00
2022-10-29T07:48:40.161Z,100.00
2022-10-29T07:49:37.443Z,100.00
2022-10-29T07:50:34.480Z,100.00
2022-10-29T07:51:31.177Z,100.00
2022-10-29T07:52:27.871Z,100.00
2022-10-29T07:53:24.560Z,100.00
2022-10-29T07:54:21.813Z,100.00
2022-10-29T07:55:18.579Z,100.00
2022-10-29T07:56:15.286Z,100.00
2022-10-29T07:57:12.028Z,100.00
2022-10-29T07:58:12.385Z,100.00
2022-10-29T07:59:09.278Z,100.00
2022-10-29T08:00:06.522Z,100.00
2022-10-29T08:01:03.545Z,100.00
2022-10-29T08:02:00.326Z,100.00
2022-10-29T08:02:57.556Z,100.00
2022-10-29T08:03:54.260Z,100.00
2022-10-29T08:04:51.031Z,100.00
2022-10-29T08:05:55.464Z,100.00
2022-10-29T08:06:53.418Z,100.00
2022-10-29T08:07:52.798Z,100.00
2022-10-29T08:08:49.578Z,100.00
2022-10-29T08:09:46.264Z,100.00
2022-10-29T08:10:44.233Z,100.00
2022-10-29T08:11:40.976Z,100.00
2022-10-29T08:12:37.777Z,100.00
2022-10-29T08:13:34.637Z,100.00
2022-10-29T08:14:31.373Z,100.00
2022-10-29T08:15:30.938Z,100.00
2022-10-29T08:16:27.733Z,100.00
2022-10-29T08:17:24.414Z,100.00
2022-10-29T08:18:21.214Z,100.00
2022-10-29T08:19:17.908Z,100.00
2022-10-29T08:20:15.934Z,100.00
2022-10-29T08:21:12.827Z,100.00
2022-10-29T08:22:09.633Z,100.00
2022-10-29T08:23:06.378Z,100.00
2022-10-29T08:24:03.113Z,100.00
2022-10-29T08:24:59.820Z,100.00
2022-10-29T08:25:58.920Z,100.00
2022-10-29T08:26:55.620Z,100.00
2022-10-29T08:28:05.696Z,100.00
2022-10-29T08:29:02.481Z,100.00
2022-10-29T08:29:59.252Z,100.00
2022-10-29T08:30:55.998Z,100.00
2022-10-29T08:31:52.695Z,100.00
2022-10-29T08:32:49.416Z,100.00
2022-10-29T08:33:48.179Z,100.00
2022-10-29T08:34:44.917Z,100.00
2022-10-29T08:35:41.622Z,100.00
2022-10-29T08:36:38.503Z,100.00
2022-10-29T08:37:35.282Z,100.00
2022-10-29T08:38:31.943Z,100.00
2022-10-29T08:39:28.663Z,100.00
2022-10-29T08:40:36.118Z,100.00
2022-10-29T08:42:00.409Z,100.00
2022-10-29T08:43:06.238Z,100.00
2022-10-29T08:44:05.934Z,100.00
2022-10-29T08:45:36.173Z,98.18
2022-10-29T08:47:32.584Z,97.15
2022-10-29T08:48:31.907Z,97.33
2022-10-29T08:49:43.501Z,97.80
2022-10-29T08:50:57.278Z,96.38
2022-10-29T08:51:59.415Z,97.50
2022-10-29T08:53:19.410Z,96.10
2022-10-29T08:54:32.225Z,94.60
2022-10-29T08:55:37.972Z,93.19
2022-10-29T08:56:38.840Z,92.86
2022-10-29T08:57:43.841Z,93.58
2022-10-29T08:59:18.507Z,92.53
2022-10-29T09:00:19.920Z,92.27
2022-10-29T09:01:22.681Z,92.18
2022-10-29T09:02:19.899Z,90.65
2022-10-29T09:03:16.785Z,90.13
2022-10-29T09:04:26.910Z,91.56
2022-10-29T09:05:38.912Z,90.77
2022-10-29T09:07:12.200Z,90.52
2022-10-29T09:08:38.152Z,91.29
2022-10-29T09:10:03.161Z,91.24
2022-10-29T09:11:16.978Z,91.05
2022-10-29T09:12:39.738Z,90.18
2022-10-29T09:13:59.294Z,90.26
2022-10-29T09:15:11.294Z,91.29
2022-10-29T09:16:56.234Z,89.68
2022-10-29T09:18:11.728Z,91.02
2022-10-29T09:19:23.213Z,88.10
2022-10-29T09:20:29.032Z,88.19
2022-10-29T09:21:32.222Z,89.21
2022-10-29T09:22:40.960Z,89.27
2022-10-29T09:24:00.981Z,86.97
2022-10-29T09:25:09.764Z,86.81
2022-10-29T09:26:16.168Z,86.22
2022-10-29T09:27:38.353Z,85.94
2022-10-29T09:28:45.641Z,85.95
2022-10-29T09:29:56.497Z,85.53
2022-10-29T09:31:07.476Z,85.46
2022-10-29T09:32:32.037Z,84.07
2022-10-29T09:33:31.995Z,84.46
2022-10-29T09:34:47.148Z,83.85
2022-10-29T09:35:52.843Z,84.60
2022-10-29T09:36:49.731Z,85.04
2022-10-29T09:37:54.758Z,83.89
2022-10-29T09:38:59.464Z,84.28
2022-10-29T09:39:58.968Z,83.11
2022-10-29T09:40:59.291Z,82.25
2022-10-29T09:41:58.076Z,81.80
2022-10-29T09:42:55.646Z,82.01
2022-10-29T09:43:55.345Z,81.99
2022-10-29T09:44:57.476Z,81.23
2022-10-29T09:46:09.008Z,82.64
2022-10-29T09:47:28.527Z,81.56
2022-10-29T09:48:42.437Z,82.95
2022-10-29T09:50:05.183Z,81.05
2022-10-29T09:51:27.992Z,81.69
2022-10-29T09:52:31.344Z,82.26
2022-10-29T09:53:28.185Z,80.81
2022-10-29T09:54:30.509Z,80.57
2022-10-29T09:55:38.678Z,79.36
2022-10-29T09:56:35.769Z,78.98
2022-10-29T09:57:36.303Z,79.31
2022-10-29T09:58:41.713Z,78.84
2022-10-29T09:59:44.480Z,78.80
2022-10-29T10:00:41.321Z,77.88
2022-10-29T10:01:38.504Z,77.02
2022-10-29T10:02:38.677Z,76.11
2022-10-29T10:03:47.494Z,75.82
2022-10-29T10:04:51.143Z,75.25
2022-10-29T10:06:08.865Z,75.52
2022-10-29T10:07:09.689Z,74.03
2022-10-29T10:08:15.553Z,74.43
2022-10-29T10:09:12.227Z,74.71
2022-10-29T10:10:57.873Z,73.81
2022-10-29T10:11:58.895Z,73.02
2022-10-29T10:13:03.903Z,72.38
2022-10-29T10:14:08.306Z,71.54
2022-10-29T10:15:24.017Z,70.44
2022-10-29T10:16:28.672Z,71.48
2022-10-29T10:17:25.425Z,71.55
2022-10-29T10:18:23.773Z,70.81
2022-10-29T10:19:26.510Z,71.44
2022-10-29T10:20:45.519Z,71.68
2022-10-29T10:21:42.196Z,71.05
2022-10-29T10:22:46.970Z,70.58
2022-10-29T10:23:52.675Z,71.67
2022-10-29T10:24:49.431Z,71.86
2022-10-29T10:25:46.284Z,71.14
2022-10-29T10:26:43.595Z,70.78
2022-10-29T10:27:40.381Z,69.75
2022-10-29T10:28:37.251Z,69.51
2022-10-29T10:29:33.924Z,70.06
2022-10-29T10:30:30.702Z,70.27
2022-10-29T10:31:28.521Z,70.48
2022-10-29T10:32:25.917Z,69.67
2022-10-29T10:33:25.856Z,69.32
2022-10-29T10:34:23.213Z,68.68
2022-10-29T10:35:30.940Z,69.42
2022-10-29T10:36:31.045Z,69.18
2022-10-29T10:37:33.776Z,68.72
2022-10-29T10:38:43.681Z,68.88
2022-10-29T10:39:47.473Z,70.13
2022-10-29T10:40:44.513Z,69.37
2022-10-29T10:41:43.659Z,68.15
2022-10-29T10:42:47.102Z,67.93
2022-10-29T10:43:47.292Z,67.37
2022-10-29T10:45:17.651Z,67.70
2022-10-29T10:46:33.117Z,67.13
2022-10-29T10:47:36.037Z,66.37
2022-10-29T10:48:34.174Z,67.41
2022-10-29T10:49:38.012Z,68.16
2022-10-29T10:50:36.802Z,67.73
2022-10-29T10:51:37.957Z,67.54
2022-10-29T10:52:35.310Z,67.37
2022-10-29T10:53:34.952Z,67.49
2022-10-29T10:54:37.103Z,67.38
2022-10-29T10:55:38.951Z,67.92
2022-10-29T10:56:55.680Z,68.17
2022-10-29T10:57:57.969Z,67.57
2022-10-29T10:59:12.913Z,66.76
2022-10-29T11:00:21.760Z,65.82
2022-10-29T11:01:28.513Z,65.70
2022-10-29T11:02:43.453Z,66.49
2022-10-29T11:04:00.743Z,65.48
2022-10-29T11:05:16.235Z,66.65
2022-10-29T11:06:16.513Z,66.81
2022-10-29T11:07:16.709Z,66.65
2022-10-29T11:08:19.224Z,66.86
2022-10-29T11:09:24.969Z,66.55
2022-10-29T11:10:32.317Z,65.67
2022-10-29T11:11:37.407Z,65.05
2022-10-29T11:12:50.404Z,65.60
2022-10-29T11:13:49.723Z,64.55
2022-10-29T11:14:51.527Z,64.23
2022-10-29T11:15:55.584Z,63.68
2022-10-29T11:16:57.604Z,63.89
2022-10-29T11:18:12.604Z,63.66
2022-10-29T11:19:34.170Z,62.87
2022-10-29T11:20:38.663Z,62.88
2022-10-29T11:22:01.459Z,62.67
2022-10-29T11:23:25.668Z,62.17
2022-10-29T11:24:39.073Z,62.43
2022-10-29T11:25:45.250Z,61.70
2022-10-29T11:26:56.295Z,60.99
2022-10-29T11:28:08.094Z,61.90
2022-10-29T11:29:10.473Z,61.89
2022-10-29T11:30:14.425Z,62.32
2022-10-29T11:31:25.734Z,62.19
2022-10-29T11:32:28.470Z,61.62
2022-10-29T11:33:46.825Z,61.12
2022-10-29T11:35:13.391Z,61.19
2022-10-29T11:36:22.272Z,60.35
2022-10-29T11:37:41.788Z,60.43
2022-10-29T11:38:56.656Z,60.19
2022-10-29T11:40:10.373Z,59.90
2022-10-29T11:41:21.997Z,60.19
2022-10-29T11:42:18.864Z,59.64
2022-10-29T11:43:20.720Z,59.53
2022-10-29T11:44:20.754Z,59.31
2022-10-29T11:45:49.174Z,60.14
2022-10-29T11:47:10.178Z,59.77
2022-10-29T11:48:22.309Z,59.45
2022-10-29T11:50:00.525Z,58.66
2022-10-29T11:51:18.665Z,57.79
2022-10-29T11:52:35.822Z,58.00
2022-10-29T11:53:53.896Z,57.64
2022-10-29T11:55:09.029Z,57.76
2022-10-29T11:56:24.437Z,57.97
2022-10-29T11:57:40.944Z,57.70
2022-10-29T11:58:50.609Z,57.04
2022-10-29T12:00:12.844Z,57.31
2022-10-29T12:01:18.686Z,57.52
2022-10-29T12:02:18.225Z,57.11
2022-10-29T12:03:49.206Z,57.03
2022-10-29T12:05:17.328Z,56.69
2022-10-29T12:06:32.327Z,56.78
2022-10-29T12:07:39.682Z,56.35
2022-10-29T12:09:00.719Z,56.44
2022-10-29T12:10:12.832Z,55.69
2022-10-29T12:11:43.269Z,55.71
2022-10-29T12:13:02.966Z,54.97
2022-10-29T12:14:20.269Z,55.38
2022-10-29T12:15:43.126Z,55.16
2022-10-29T12:16:58.437Z,55.23
2022-10-29T12:18:22.466Z,55.20
2022-10-29T12:19:52.564Z,54.90
2022-10-29T12:21:10.748Z,55.48
2022-10-29T12:22:37.339Z,55.32
2022-10-29T12:24:11.656Z,55.22
2022-10-29T12:25:46.961Z,55.34
2022-10-29T12:26:59.571Z,55.12
2022-10-29T12:28:21.642Z,54.32
2022-10-29T12:29:20.996Z,54.63
2022-10-29T12:30:22.131Z,54.69
2022-10-29T12:31:37.254Z,53.96
2022-10-29T12:32:50.874Z,54.12
2022-10-29T12:33:55.264Z,53.56
2022-10-29T12:35:03.336Z,53.97
2022-10-29T12:36:20.882Z,54.57
2022-10-29T12:37:35.804Z,54.83
2022-10-29T12:38:38.329Z,54.25
2022-10-29T12:39:47.008Z,53.29
2022-10-29T12:40:48.518Z,53.15
2022-10-29T12:41:51.474Z,53.38
2022-10-29T12:42:50.929Z,52.94
2022-10-29T12:43:48.483Z,52.76
2022-10-29T12:44:51.734Z,52.52
2022-10-29T12:46:19.065Z,52.26
2022-10-29T12:47:38.752Z,52.95
2022-10-29T12:48:48.042Z,52.05
2022-10-29T12:50:15.213Z,52.70
2022-10-29T12:51:11.874Z,52.11
2022-10-29T12:52:19.336Z,52.44
2022-10-29T12:54:05.172Z,52.49
2022-10-29T12:55:06.561Z,52.79
2022-10-29T12:56:03.989Z,52.82
2022-10-29T12:57:31.627Z,52.48
2022-10-29T12:58:48.916Z,52.45
2022-10-29T12:59:46.092Z,51.51
2022-10-29T13:00:49.478Z,51.33
2022-10-29T13:03:04.116Z,51.30
2022-10-29T13:04:05.112Z,51.23
2022-10-29T13:05:09.682Z,50.98
2022-10-29T13:06:44.277Z,50.95
2022-10-29T13:08:03.985Z,51.44
2022-10-29T13:09:15.469Z,51.59
2022-10-29T13:10:29.458Z,51.08
2022-10-29T13:11:44.411Z,51.70
2022-10-29T13:12:58.922Z,50.63
2022-10-29T13:14:00.517Z,50.67
2022-10-29T13:15:09.357Z,50.86
2022-10-29T13:16:25.844Z,50.10
2022-10-29T13:17:33.300Z,49.84
2022-10-29T13:19:02.272Z,48.61
2022-10-29T13:20:22.173Z,48.67
2022-10-29T13:21:58.094Z,48.10
2022-10-29T13:22:58.848Z,48.28
2022-10-29T13:24:04.404Z,47.80